createdAt,value
2022-09-14T00:01:14.236Z,97368.72
2022-09-14T00:03:41.206Z,97357.94
2022-09-14T00:06:11.114Z,97357.38
2022-09-14T00:08:39.243Z,97354.63
2022-09-14T00:11:09.213Z,97357.66
2022-09-14T00:13:36.662Z,97348.97
2022-09-14T00:16:12.312Z,97347.94
2022-09-14T00:18:39.541Z,97342.00
2022-09-14T00:21:08.245Z,97338.06
2022-09-14T00:23:37.605Z,97332.97
2022-09-14T00:26:13.794Z,97323.22
2022-09-14T00:28:45.899Z,97325.97
2022-09-14T00:31:13.859Z,97316.97
2022-09-14T00:33:42.422Z,97316.53
2022-09-14T00:36:12.023Z,97315.22
2022-09-14T00:38:40.295Z,97319.44
2022-09-14T00:41:10.561Z,97308.41
2022-09-14T00:43:59.239Z,97306.22
2022-09-14T00:46:28.358Z,97299.66
2022-09-14T00:48:56.881Z,97296.75
2022-09-14T00:51:24.455Z,97290.66
2022-09-14T00:53:51.652Z,97281.63
2022-09-14T00:56:19.041Z,97274.53
2022-09-14T00:58:48.430Z,97278.28
2022-09-14T01:01:15.611Z,97281.06
2022-09-14T01:03:42.705Z,97268.84
2022-09-14T01:06:21.803Z,97270.16
2022-09-14T01:09:19.553Z,97263.31
2022-09-14T01:12:07.401Z,97264.03
2022-09-14T01:15:01.074Z,97248.19
2022-09-14T01:17:34.343Z,97248.34
2022-09-14T01:20:27.928Z,97251.84
2022-09-14T01:23:36.498Z,97259.41
2022-09-14T01:26:26.944Z,97254.59
2022-09-14T01:29:09.058Z,97243.25
2022-09-14T01:31:53.276Z,97240.50
2022-09-14T01:34:31.665Z,97249.09
2022-09-14T01:37:12.805Z,97246.19
2022-09-14T01:39:46.211Z,97251.53
2022-09-14T01:42:14.767Z,97234.97
2022-09-14T01:44:44.675Z,97233.06
2022-09-14T01:47:26.457Z,97241.66
2022-09-14T01:49:59.269Z,97234.66
2022-09-14T01:52:36.289Z,97239.75
2022-09-14T01:55:07.906Z,97236.88
2022-09-14T01:57:43.149Z,97241.06
2022-09-14T02:00:16.486Z,97243.97
2022-09-14T02:02:49.492Z,97245.44
2022-09-14T02:05:19.574Z,97245.75
2022-09-14T02:07:46.652Z,97245.88
2022-09-14T02:10:15.462Z,97239.91
2022-09-14T02:12:43.034Z,97245.75
2022-09-14T02:15:11.323Z,97248.63
2022-09-14T02:17:38.865Z,97246.91
2022-09-14T02:20:08.372Z,97256.06
2022-09-14T02:22:35.582Z,97245.88
2022-09-14T02:25:03.265Z,97241.78
2022-09-14T02:27:30.299Z,97240.50
2022-09-14T02:29:57.413Z,97232.50
2022-09-14T02:32:35.962Z,97229.44
2022-09-14T02:35:32.614Z,97228.72
2022-09-14T02:38:14.244Z,97233.50
2022-09-14T02:40:46.832Z,97235.13
2022-09-14T02:43:23.007Z,97236.84
2022-09-14T02:46:11.780Z,97241.97
2022-09-14T02:48:52.436Z,97244.59
2022-09-14T02:51:38.694Z,97235.84
2022-09-14T02:54:11.870Z,97237.31
2022-09-14T02:56:38.873Z,97229.59
2022-09-14T02:59:06.186Z,97233.09
2022-09-14T03:01:33.419Z,97228.88
2022-09-14T03:04:00.475Z,97221.16
2022-09-14T03:06:27.472Z,97228.72
2022-09-14T03:08:54.444Z,97230.03
2022-09-14T03:11:21.386Z,97232.34
2022-09-14T03:13:48.393Z,97226.53
2022-09-14T03:16:17.248Z,97222.03
2022-09-14T03:18:44.517Z,97221.75
2022-09-14T03:21:16.360Z,97219.56
2022-09-14T03:23:47.864Z,97210.84
2022-09-14T03:26:20.052Z,97214.59
2022-09-14T03:28:54.187Z,97200.22
2022-09-14T03:31:21.651Z,97201.41
2022-09-14T03:33:54.086Z,97204.00
2022-09-14T03:36:21.311Z,97197.63
2022-09-14T03:38:51.448Z,97191.81
2022-09-14T03:41:19.122Z,97192.53
2022-09-14T03:43:46.317Z,97189.06
2022-09-14T03:46:17.562Z,97191.22
2022-09-14T03:48:44.864Z,97187.75
2022-09-14T03:51:12.978Z,97180.19
2022-09-14T03:53:40.749Z,97177.13
2022-09-14T03:56:09.263Z,97175.81
2022-09-14T03:58:36.654Z,97179.47
2022-09-14T04:01:08.151Z,97157.81
2022-09-14T04:03:35.502Z,97159.00
2022-09-14T04:06:05.405Z,97160.28
2022-09-14T04:08:34.595Z,97159.97
2022-09-14T04:11:18.114Z,97158.50
2022-09-14T04:13:45.779Z,97150.22
2022-09-14T04:16:13.463Z,97148.94
2022-09-14T04:18:40.565Z,97150.38
2022-09-14T04:21:10.139Z,97156.66
2022-09-14T04:23:56.585Z,97149.38
2022-09-14T04:26:28.047Z,97154.13
2022-09-14T04:28:55.585Z,97158.66
2022-09-14T04:31:22.994Z,97156.78
2022-09-14T04:33:51.253Z,97171.63
2022-09-14T04:36:20.187Z,97157.81
2022-09-14T04:38:47.182Z,97162.03
2022-09-14T04:41:16.584Z,97163.19
2022-09-14T04:43:45.181Z,97169.56
2022-09-14T04:46:14.851Z,97164.91
2022-09-14T04:48:42.220Z,97165.09
2022-09-14T04:51:10.613Z,97166.38
2022-09-14T04:53:38.817Z,97168.72
2022-09-14T04:56:08.148Z,97164.78
2022-09-14T04:58:40.974Z,97167.84
2022-09-14T05:01:10.634Z,97166.66
2022-09-14T05:03:39.071Z,97160.56
2022-09-14T05:06:07.903Z,97161.44
2022-09-14T05:08:36.524Z,97156.66
2022-09-14T05:11:03.603Z,97150.69
2022-09-14T05:13:31.018Z,97157.06
2022-09-14T05:16:09.012Z,97153.72
2022-09-14T05:18:36.540Z,97150.22
2022-09-14T05:21:08.373Z,97145.44
2022-09-14T05:23:35.994Z,97152.44
2022-09-14T05:26:03.999Z,97149.69
2022-09-14T05:28:31.502Z,97155.19
2022-09-14T05:30:58.639Z,97143.44
2022-09-14T05:33:25.909Z,97145.59
2022-09-14T05:35:52.893Z,97150.69
2022-09-14T05:38:19.843Z,97145.88
2022-09-14T05:40:47.272Z,97150.81
2022-09-14T05:43:14.256Z,97140.50
2022-09-14T05:45:41.468Z,97150.38
2022-09-14T05:48:08.468Z,97147.75
2022-09-14T05:50:35.443Z,97146.56
2022-09-14T05:53:02.442Z,97158.38
2022-09-14T05:55:29.429Z,97161.13
2022-09-14T05:57:57.072Z,97157.19
2022-09-14T06:00:24.214Z,97151.22
2022-09-14T06:02:52.936Z,97151.81
2022-09-14T06:05:20.860Z,97153.41
2022-09-14T06:07:52.553Z,97150.81
2022-09-14T06:10:23.266Z,97143.56
2022-09-14T06:12:53.534Z,97142.84
2022-09-14T06:15:24.574Z,97145.03
2022-09-14T06:17:51.586Z,97141.13
2022-09-14T06:20:18.943Z,97141.13
2022-09-14T06:22:45.959Z,97140.81
2022-09-14T06:25:13.021Z,97135.84
2022-09-14T06:27:40.021Z,97132.38
2022-09-14T06:30:07.635Z,97124.22
2022-09-14T06:32:34.848Z,97120.59
2022-09-14T06:35:03.590Z,97124.38
2022-09-14T06:37:30.895Z,97112.59
2022-09-14T06:39:58.172Z,97117.84
2022-09-14T06:42:25.177Z,97122.91
2022-09-14T06:44:52.166Z,97122.75
2022-09-14T06:47:42.531Z,97115.31
2022-09-14T06:50:09.895Z,97118.25
2022-09-14T06:52:37.362Z,97116.34
2022-09-14T06:55:24.958Z,97117.50
2022-09-14T06:57:52.143Z,97114.16
2022-09-14T07:00:19.263Z,97114.59
2022-09-14T07:02:47.298Z,97117.66
2022-09-14T07:05:20.325Z,97124.03
2022-09-14T07:07:51.206Z,97123.03
2022-09-14T07:10:18.288Z,97124.91
2022-09-14T07:12:45.382Z,97124.91
2022-09-14T07:15:12.422Z,97122.03
2022-09-14T07:17:39.481Z,97118.97
2022-09-14T07:20:08.088Z,97115.03
2022-09-14T07:22:35.484Z,97113.59
2022-09-14T07:25:02.593Z,97117.50
2022-09-14T07:27:29.687Z,97119.09
2022-09-14T07:29:56.723Z,97121.41
2022-09-14T07:32:23.846Z,97126.66
2022-09-14T07:34:51.115Z,97122.59
2022-09-14T07:37:18.177Z,97123.00
2022-09-14T07:39:45.237Z,97127.47
2022-09-14T07:42:12.406Z,97131.25
2022-09-14T07:44:39.719Z,97132.41
2022-09-14T07:47:07.040Z,97136.75
2022-09-14T07:49:34.186Z,97132.25
2022-09-14T07:52:01.283Z,97137.31
2022-09-14T07:54:28.519Z,97131.06
2022-09-14T07:56:55.803Z,97131.94
2022-09-14T07:59:35.655Z,97125.44
2022-09-14T08:02:06.169Z,97129.78
2022-09-14T08:04:35.762Z,97132.25
2022-09-14T08:07:03.145Z,97133.31
2022-09-14T08:09:30.291Z,97127.78
2022-09-14T08:11:57.931Z,97128.38
2022-09-14T08:14:25.367Z,97116.88
2022-09-14T08:16:55.054Z,97127.47
2022-09-14T08:19:22.128Z,97126.31
2022-09-14T08:21:49.247Z,97120.22
2022-09-14T08:24:19.376Z,97124.72
2022-09-14T08:26:47.507Z,97126.56
2022-09-14T08:29:16.059Z,97117.25
2022-09-14T08:31:45.405Z,97119.75
2022-09-14T08:34:13.682Z,97116.72
2022-09-14T08:36:41.544Z,97116.25
2022-09-14T08:39:10.469Z,97111.16
2022-09-14T08:41:43.682Z,97110.84
2022-09-14T08:44:30.263Z,97106.31
2022-09-14T08:47:01.816Z,97111.41
2022-09-14T08:49:43.232Z,97104.00
2022-09-14T08:52:23.865Z,97105.50
2022-09-14T08:54:54.139Z,97108.25
2022-09-14T08:57:40.544Z,97102.28
2022-09-14T09:00:13.850Z,97109.84
2022-09-14T09:03:05.320Z,97105.75
2022-09-14T09:05:52.703Z,97109.25
2022-09-14T09:08:39.518Z,97100.78
2022-09-14T09:11:12.891Z,97099.28
2022-09-14T09:13:40.221Z,97096.94
2022-09-14T09:16:09.400Z,97098.97
2022-09-14T09:18:40.943Z,97094.91
2022-09-14T09:21:42.056Z,97098.69
2022-09-14T09:24:20.809Z,97089.69
2022-09-14T09:26:47.901Z,97100.75
2022-09-14T09:29:14.976Z,97087.75
2022-09-14T09:31:47.495Z,97086.13
2022-09-14T09:34:16.730Z,97086.38
2022-09-14T09:36:47.975Z,97086.53
2022-09-14T09:39:15.847Z,97080.66
2022-09-14T09:41:50.333Z,97086.59
2022-09-14T09:44:17.509Z,97085.56
2022-09-14T09:46:59.551Z,97077.50
2022-09-14T09:49:31.758Z,97075.03
2022-09-14T09:52:14.634Z,97083.44
2022-09-14T09:54:43.376Z,97076.72
2022-09-14T09:57:24.124Z,97069.88
2022-09-14T09:59:51.242Z,97071.53
2022-09-14T10:02:32.259Z,97077.91
2022-09-14T10:05:12.048Z,97074.69
2022-09-14T10:07:57.915Z,97081.41
2022-09-14T10:10:34.042Z,97073.94
2022-09-14T10:13:02.079Z,97077.00
2022-09-14T10:15:36.610Z,97078.31
2022-09-14T10:18:13.098Z,97082.25
2022-09-14T10:20:48.699Z,97087.78
2022-09-14T10:23:23.816Z,97080.94
2022-09-14T10:25:53.856Z,97081.81
2022-09-14T10:28:28.038Z,97081.34
2022-09-14T10:31:15.305Z,97082.06
2022-09-14T10:33:42.787Z,97087.91
2022-09-14T10:36:30.763Z,97087.34
2022-09-14T10:39:26.171Z,97086.88
2022-09-14T10:42:00.409Z,97078.44
2022-09-14T10:44:37.727Z,97083.13
2022-09-14T10:47:37.621Z,97080.59
2022-09-14T10:50:13.468Z,97068.94
2022-09-14T10:53:04.659Z,97063.41
2022-09-14T10:56:03.722Z,97059.06
2022-09-14T10:59:16.465Z,97059.06
2022-09-14T11:01:53.054Z,97060.63
2022-09-14T11:04:33.288Z,97058.47
2022-09-14T11:07:26.661Z,97059.19
2022-09-14T11:10:16.173Z,97068.34
2022-09-14T11:12:57.719Z,97070.06
2022-09-14T11:15:46.185Z,97065.56
2022-09-14T11:18:21.555Z,97060.91
2022-09-14T11:21:06.147Z,97059.59
2022-09-14T11:23:54.848Z,97058.28
2022-09-14T11:26:31.591Z,97059.72
2022-09-14T11:29:19.168Z,97043.31
2022-09-14T11:32:19.355Z,97051.75
2022-09-14T11:34:47.561Z,97061.84
2022-09-14T11:37:17.083Z,97061.97
2022-09-14T11:39:48.016Z,97053.41
2022-09-14T11:42:24.846Z,97048.00
2022-09-14T11:44:59.469Z,97041.03
2022-09-14T11:47:26.626Z,97035.63
2022-09-14T11:50:08.062Z,97027.56
2022-09-14T11:52:35.260Z,97024.78
2022-09-14T11:55:03.589Z,97027.09
2022-09-14T11:57:32.197Z,97030.84
2022-09-14T12:00:01.386Z,97019.44
2022-09-14T12:02:28.329Z,97010.69
2022-09-14T12:05:07.345Z,97031.75
2022-09-14T12:07:46.394Z,97031.84
2022-09-14T12:10:19.262Z,97018.16
2022-09-14T12:13:04.375Z,97015.50
2022-09-14T12:15:34.402Z,97022.03
2022-09-14T12:18:07.709Z,97022.03
2022-09-14T12:20:37.504Z,97022.88
2022-09-14T12:23:05.680Z,97021.56
2022-09-14T12:25:34.072Z,97022.28
2022-09-14T12:28:01.300Z,97020.84
2022-09-14T12:30:54.420Z,97018.91
2022-09-14T12:33:31.084Z,97022.16
2022-09-14T12:36:16.836Z,97020.09
2022-09-14T12:38:49.599Z,97020.22
2022-09-14T12:41:19.664Z,97009.28
2022-09-14T12:43:49.489Z,97006.50
2022-09-14T12:46:19.704Z,97001.09
2022-09-14T12:48:50.676Z,97000.84
2022-09-14T12:51:26.819Z,97003.63
2022-09-14T12:54:09.168Z,96991.94
2022-09-14T12:56:46.901Z,96998.34
2022-09-14T12:59:39.105Z,96996.03
2022-09-14T13:02:47.492Z,96994.25
2022-09-14T13:05:18.075Z,96993.66
2022-09-14T13:07:45.551Z,96994.25
2022-09-14T13:10:30.958Z,96997.00
2022-09-14T13:12:59.253Z,96981.72
2022-09-14T13:15:30.201Z,96978.34
2022-09-14T13:18:28.257Z,96962.59
2022-09-14T13:20:57.805Z,96973.06
2022-09-14T13:23:36.688Z,96966.34
2022-09-14T13:26:12.028Z,96962.63
2022-09-14T13:28:43.114Z,96955.16
2022-09-14T13:31:14.759Z,96945.16
2022-09-14T13:33:48.037Z,96942.63
2022-09-14T13:36:18.361Z,96949.00
2022-09-14T13:38:45.878Z,96943.72
2022-09-14T13:41:15.759Z,96937.09
2022-09-14T13:43:44.857Z,96947.22
2022-09-14T13:46:12.035Z,96946.97
2022-09-14T13:48:41.315Z,96954.78
2022-09-14T13:51:10.338Z,96952.75
2022-09-14T13:53:48.865Z,96947.81
2022-09-14T13:56:30.950Z,96952.75
2022-09-14T13:59:07.256Z,96956.34
2022-09-14T14:01:40.536Z,96953.25
2022-09-14T14:04:24.169Z,96953.25
2022-09-14T14:07:06.730Z,96956.38
2022-09-14T14:09:54.235Z,96946.13
2022-09-14T14:12:34.532Z,96955.53
2022-09-14T14:15:27.535Z,96949.84
2022-09-14T14:17:54.989Z,96943.97
2022-09-14T14:20:34.307Z,96945.16
2022-09-14T14:23:10.578Z,96945.03
2022-09-14T14:25:54.089Z,96937.94
2022-09-14T14:28:28.204Z,96937.94
2022-09-14T14:30:56.888Z,96939.25
2022-09-14T14:33:24.061Z,96936.97
2022-09-14T14:35:53.886Z,96940.56
2022-09-14T14:38:23.369Z,96940.00
2022-09-14T14:40:54.052Z,96932.53
2022-09-14T14:43:25.257Z,96936.63
2022-09-14T14:46:02.006Z,96933.13
2022-09-14T14:48:29.473Z,96935.28
2022-09-14T14:50:56.807Z,96936.63
2022-09-14T14:53:24.762Z,96932.41
2022-09-14T14:55:51.907Z,96926.25
2022-09-14T14:58:20.326Z,96930.59
2022-09-14T15:00:47.864Z,96925.66
2022-09-14T15:03:15.683Z,96929.88
2022-09-14T15:05:43.703Z,96927.22
2022-09-14T15:08:12.179Z,96925.31
2022-09-14T15:10:40.354Z,96925.88
2022-09-14T15:13:08.508Z,96923.00
2022-09-14T15:15:35.558Z,96919.38
2022-09-14T15:18:02.662Z,96915.91
2022-09-14T15:20:29.680Z,96906.00
2022-09-14T15:22:57.108Z,96912.03
2022-09-14T15:25:24.145Z,96907.81
2022-09-14T15:27:51.303Z,96912.50
2022-09-14T15:30:18.410Z,96911.78
2022-09-14T15:32:45.504Z,96911.03
2022-09-14T15:35:14.121Z,96910.47
2022-09-14T15:37:41.696Z,96911.03
2022-09-14T15:40:09.857Z,96912.25
2022-09-14T15:42:36.984Z,96904.66
2022-09-14T15:45:05.277Z,96903.09
2022-09-14T15:47:36.249Z,96903.72
2022-09-14T15:50:04.687Z,96896.59
2022-09-14T15:52:35.125Z,96893.94
2022-09-14T15:55:02.350Z,96895.97
2022-09-14T15:57:29.517Z,96889.13
2022-09-14T15:59:56.567Z,96893.09
2022-09-14T16:02:23.675Z,96883.34
2022-09-14T16:04:50.832Z,96888.28
2022-09-14T16:07:17.933Z,96889.13
2022-09-14T16:09:45.733Z,96886.47
2022-09-14T16:12:12.998Z,96878.16
2022-09-14T16:14:40.019Z,96875.16
2022-09-14T16:17:08.531Z,96869.38
2022-09-14T16:19:35.784Z,96872.88
2022-09-14T16:22:03.517Z,96867.94
2022-09-14T16:24:31.137Z,96863.84
2022-09-14T16:26:58.250Z,96861.06
2022-09-14T16:29:25.812Z,96867.81
2022-09-14T16:31:53.886Z,96857.34
2022-09-14T16:34:28.073Z,96857.47
2022-09-14T16:36:59.992Z,96856.75
2022-09-14T16:39:29.363Z,96855.19
2022-09-14T16:41:56.899Z,96852.41
2022-09-14T16:44:25.952Z,96855.19
2022-09-14T16:46:54.520Z,96846.75
2022-09-14T16:49:27.007Z,96846.75
2022-09-14T16:51:55.381Z,96845.41
2022-09-14T16:54:23.646Z,96847.34
2022-09-14T16:56:50.778Z,96843.03
2022-09-14T16:59:19.346Z,96838.69
2022-09-14T17:01:50.860Z,96840.88
2022-09-14T17:04:22.070Z,96842.16
2022-09-14T17:06:50.764Z,96841.44
2022-09-14T17:09:20.467Z,96838.56
2022-09-14T17:11:48.472Z,96836.63
2022-09-14T17:14:17.893Z,96837.94
2022-09-14T17:16:45.285Z,96831.09
2022-09-14T17:19:12.792Z,96824.13
2022-09-14T17:21:42.088Z,96818.59
2022-09-14T17:24:09.714Z,96808.22
2022-09-14T17:26:36.890Z,96803.31
2022-09-14T17:29:05.062Z,96802.69
2022-09-14T17:31:34.693Z,96797.16
2022-09-14T17:34:03.205Z,96798.38
2022-09-14T17:36:30.491Z,96804.41
2022-09-14T17:38:59.303Z,96798.72
2022-09-14T17:41:31.519Z,96794.78
2022-09-14T17:44:02.997Z,96796.94
2022-09-14T17:46:30.336Z,96783.09
2022-09-14T17:48:59.062Z,96794.78
2022-09-14T17:51:28.365Z,96789.84
2022-09-14T17:53:56.942Z,96789.25
2022-09-14T17:56:25.848Z,96790.69
2022-09-14T17:59:05.462Z,96787.31
2022-09-14T18:01:32.867Z,96790.69
2022-09-14T18:04:04.046Z,96788.03
2022-09-14T18:06:34.670Z,96785.88
2022-09-14T18:09:10.891Z,96781.41
2022-09-14T18:11:38.533Z,96780.47
2022-09-14T18:14:06.274Z,96785.63
2022-09-14T18:16:34.033Z,96792.47
2022-09-14T18:19:01.526Z,96781.53
2022-09-14T18:21:28.568Z,96770.56
2022-09-14T18:23:55.839Z,96767.69
2022-09-14T18:26:24.343Z,96766.75
2022-09-14T18:28:53.768Z,96760.47
2022-09-14T18:31:20.871Z,96756.97
2022-09-14T18:33:50.298Z,96757.59
2022-09-14T18:36:18.150Z,96756.16
2022-09-14T18:38:45.554Z,96759.41
2022-09-14T18:41:13.099Z,96750.50
2022-09-14T18:43:45.006Z,96751.94
2022-09-14T18:46:13.506Z,96751.34
2022-09-14T18:48:43.516Z,96745.19
2022-09-14T18:51:12.210Z,96741.00
2022-09-14T18:53:40.082Z,96739.56
2022-09-14T18:56:09.539Z,96734.63
2022-09-14T18:58:38.485Z,96743.28
2022-09-14T19:01:06.367Z,96739.66
2022-09-14T19:03:34.372Z,96729.31
2022-09-14T19:06:09.659Z,96723.53
2022-09-14T19:08:37.132Z,96742.53
2022-09-14T19:11:13.626Z,96736.53
2022-09-14T19:13:41.065Z,96736.66
2022-09-14T19:16:09.708Z,96727.16
2022-09-14T19:18:37.295Z,96748.31
2022-09-14T19:21:09.091Z,96745.53
2022-09-14T19:23:36.741Z,96758.53
2022-09-14T19:26:12.581Z,96756.22
2022-09-14T19:28:39.721Z,96746.84
2022-09-14T19:31:12.151Z,96746.25
2022-09-14T19:33:45.113Z,96705.81
2022-09-14T19:36:22.378Z,96708.59
2022-09-14T19:38:51.213Z,96724.19
2022-09-14T19:41:19.246Z,96722.84
2022-09-14T19:46:16.312Z,96725.78
2022-09-14T19:48:43.914Z,96692.94
2022-09-14T19:51:14.407Z,96706.88
2022-09-14T19:53:42.424Z,96726.81
2022-09-14T19:56:12.971Z,96725.34
2022-09-14T19:58:42.286Z,96726.31
2022-09-14T20:01:10.136Z,96729.13
2022-09-14T20:03:38.885Z,96731.38
2022-09-14T20:06:08.443Z,96729.44
2022-09-14T20:08:36.050Z,96754.03
2022-09-14T20:11:07.380Z,96744.63
2022-09-14T20:13:35.504Z,96753.97
2022-09-14T20:16:17.969Z,96757.78
2022-09-14T20:18:45.814Z,96762.06
2022-09-14T20:21:18.285Z,96779.06
2022-09-14T20:24:11.553Z,96787.66
2022-09-14T20:26:33.718Z,96781.88
2022-09-14T20:29:01.331Z,96802.63
2022-09-14T20:31:29.744Z,96814.13
2022-09-14T20:33:57.410Z,96808.91
2022-09-14T20:36:28.638Z,96805.31
2022-09-14T20:38:57.322Z,96802.00
2022-09-14T20:41:29.417Z,96797.06
2022-09-14T20:43:57.121Z,96790.09
2022-09-14T20:46:26.889Z,96789.13
2022-09-14T20:48:54.294Z,96813.06
2022-09-14T20:51:22.753Z,96809.31
2022-09-14T20:53:49.858Z,96811.78
2022-09-14T20:56:20.324Z,96809.38
2022-09-14T20:58:48.360Z,96817.94
2022-09-14T21:01:17.573Z,96802.56
2022-09-14T21:03:47.077Z,96809.97
2022-09-14T21:06:17.272Z,96824.22
2022-09-14T21:08:45.094Z,96800.13
2022-09-14T21:11:23.375Z,96786.19
2022-09-14T21:13:52.421Z,96801.31
2022-09-14T21:16:22.303Z,96813.38
2022-09-14T21:18:57.307Z,96805.81
2022-09-14T21:21:24.517Z,96792.75
2022-09-14T21:23:52.916Z,96803.19
2022-09-14T21:26:20.224Z,96812.91
2022-09-14T21:28:47.784Z,96814.22
2022-09-14T21:31:21.455Z,96826.84
2022-09-14T21:33:51.770Z,96820.16
2022-09-14T21:36:22.570Z,96824.97
2022-09-14T21:38:54.163Z,96828.56
2022-09-14T21:41:23.348Z,96814.66
2022-09-14T21:43:50.903Z,96813.06
2022-09-14T21:46:18.573Z,96822.78
2022-09-14T21:48:45.882Z,96834.09
2022-09-14T21:51:17.908Z,96851.34
2022-09-14T21:53:49.660Z,96845.25
2022-09-14T21:56:17.867Z,96855.56
2022-09-14T21:58:49.800Z,96848.00
2022-09-14T22:01:17.318Z,96847.59
2022-09-14T22:03:45.157Z,96837.00
2022-09-14T22:06:13.203Z,96844.28
2022-09-14T22:08:40.421Z,96848.31
2022-09-14T22:11:11.090Z,96847.59
2022-09-14T22:13:38.836Z,96849.63
2022-09-14T22:16:14.413Z,96859.22
2022-09-14T22:18:47.213Z,96851.97
2022-09-14T22:21:14.694Z,96872.41
2022-09-14T22:23:41.767Z,96857.06
2022-09-14T22:26:11.772Z,96856.19
2022-09-14T22:28:40.767Z,96859.50
2022-09-14T22:31:08.516Z,96870.53
2022-09-14T22:33:35.900Z,96870.41
2022-09-14T22:36:03.972Z,96886.66
2022-09-14T22:38:32.805Z,96897.50
2022-09-14T22:41:02.426Z,96892.00
2022-09-14T22:43:30.180Z,96887.06
2022-09-14T22:45:57.952Z,96891.13
2022-09-14T22:48:25.269Z,96882.84
2022-09-14T22:50:53.917Z,96884.56
2022-09-14T22:53:22.735Z,96881.22
2022-09-14T22:55:50.115Z,96886.19
2022-09-14T22:58:19.311Z,96878.47
2022-09-14T23:00:46.800Z,96878.94
2022-09-14T23:03:16.041Z,96884.56
2022-09-14T23:05:55.650Z,96889.50
2022-09-14T23:08:23.263Z,96889.34
2022-09-14T23:10:50.587Z,96900.25
2022-09-14T23:13:17.667Z,96909.50
2022-09-14T23:15:45.518Z,96905.03
2022-09-14T23:18:13.126Z,96911.97
2022-09-14T23:20:42.598Z,96907.78
2022-09-14T23:23:10.814Z,96903.13
2022-09-14T23:25:40.148Z,96909.22
2022-09-14T23:28:09.416Z,96909.75
2022-09-14T23:30:36.545Z,96898.03
2022-09-14T23:33:03.913Z,96897.75
2022-09-14T23:35:32.876Z,96904.41
2022-09-14T23:38:02.846Z,96898.16
2022-09-14T23:40:29.994Z,96909.59
2022-09-14T23:42:57.190Z,96915.84
2022-09-14T23:45:24.264Z,96917.28
2022-09-14T23:47:51.341Z,96919.44
2022-09-14T23:50:18.906Z,96908.44
2022-09-14T23:52:47.189Z,96912.09
2022-09-14T23:55:14.422Z,96934.13
2022-09-14T23:57:41.509Z,96924.25
